Time;durP1;ratioP1;P1;durP2;ratioP2;P2;SDS_P1;SDS_P2;PMS_P1;PMS_P2;Temp;Humidity;BMP_temperature;BMP_pressure;BME280_temperature;BME280_humidity;BME280_pressure;Samples;Min_cycle;Max_cycle;Signal;HPM_P1;HPM_P2
2021/08/12 00:01:47;;;;;;;9.87;8.87;;;18.90;99.90;;;;;;5011831;28;20179;-67
2021/08/12 00:04:18;;;;;;;9.20;8.40;;;19.00;99.90;;;;;;5011889;28;20194;-67
2021/08/12 00:06:44;;;;;;;9.47;8.67;;;19.10;99.90;;;;;;5011822;28;20176;-67
2021/08/12 00:09:10;;;;;;;10.77;9.47;;;19.10;99.90;;;;;;5011544;28;20927;-67
2021/08/12 00:11:36;;;;;;;9.57;7.93;;;19.00;99.90;;;;;;5011776;28;20440;-67
2021/08/12 00:14:02;;;;;;;8.80;8.10;;;19.10;99.90;;;;;;5011685;28;21018;-67
2021/08/12 00:16:27;;;;;;;8.27;7.57;;;19.00;99.90;;;;;;5011599;28;20178;-67
2021/08/12 00:18:56;;;;;;;9.00;8.10;;;18.90;99.90;;;;;;5011449;28;20213;-67
2021/08/12 00:21:24;;;;;;;9.10;8.07;;;18.80;99.90;;;;;;5011229;28;20734;-67
2021/08/12 00:23:52;;;;;;;9.10;8.20;;;18.80;99.90;;;;;;5011560;28;20433;-67
2021/08/12 00:26:18;;;;;;;8.57;7.77;;;18.80;99.90;;;;;;5011698;28;20421;-67
2021/08/12 00:28:43;;;;;;;9.47;8.53;;;18.80;99.90;;;;;;5011313;28;20465;-67
2021/08/12 00:31:09;;;;;;;10.40;9.40;;;18.70;99.90;;;;;;4997998;28;20445;-67
2021/08/12 00:33:35;;;;;;;10.03;9.03;;;18.70;99.90;;;;;;5011454;28;20234;-67
2021/08/12 00:36:01;;;;;;;10.37;8.30;;;18.60;99.90;;;;;;5011244;28;20501;-67
2021/08/12 00:38:26;;;;;;;9.17;8.27;;;18.70;99.90;;;;;;5010630;28;20195;-67
2021/08/12 00:40:52;;;;;;;10.33;8.90;;;18.80;99.90;;;;;;5011588;28;20492;-67
2021/08/12 00:43:18;;;;;;;9.57;8.63;;;18.70;99.90;;;;;;5011329;28;20183;-67
2021/08/12 00:45:44;;;;;;;8.90;7.87;;;18.70;99.90;;;;;;5011408;28;20183;-67
2021/08/12 00:48:09;;;;;;;12.60;8.37;;;18.70;99.90;;;;;;5012584;28;20545;-67
2021/08/12 00:50:39;;;;;;;8.80;8.00;;;18.60;99.90;;;;;;5014386;28;20218;-67
2021/08/12 00:53:05;;;;;;;8.17;7.47;;;18.60;99.90;;;;;;5014497;28;20171;-67
2021/08/12 00:55:30;;;;;;;13.73;9.80;;;18.50;99.90;;;;;;5014777;28;20480;-67
2021/08/12 00:57:56;;;;;;;8.30;7.50;;;18.50;99.90;;;;;;5014549;28;20553;-67
2021/08/12 01:00:22;;;;;;;8.87;8.07;;;18.50;99.90;;;;;;5014499;28;20568;-67
2021/08/12 01:02:48;;;;;;;9.23;8.27;;;18.50;99.90;;;;;;5014754;28;20358;-67
2021/08/12 01:05:16;;;;;;;8.90;8.07;;;18.40;99.90;;;;;;5014769;28;20578;-67
2021/08/12 01:07:51;;;;;;;9.93;7.90;;;18.40;99.90;;;;;;5014518;28;20465;-67
2021/08/12 01:10:22;;;;;;;10.60;8.00;;;18.40;99.90;;;;;;5014183;28;20453;-67
2021/08/12 01:13:04;;;;;;;10.20;9.17;;;18.40;99.90;;;;;;5014665;28;20475;-67
2021/08/12 01:15:42;;;;;;;9.97;8.10;;;18.30;99.90;;;;;;4996814;28;20806;-67
2021/08/12 01:18:16;;;;;;;12.10;7.80;;;18.20;99.90;;;;;;5014293;28;20437;-67
2021/08/12 01:21:12;;;;;;;8.77;7.80;;;18.20;99.90;;;;;;5013934;28;20469;-67
2021/08/12 01:23:38;;;;;;;9.00;7.60;;;18.20;99.90;;;;;;4995648;28;20414;-67
2021/08/12 01:26:05;;;;;;;8.83;7.97;;;18.30;99.90;;;;;;5014083;28;20951;-67
2021/08/12 01:28:40;;;;;;;7.93;7.20;;;18.30;99.90;;;;;;5013256;28;20457;-67
2021/08/12 01:31:16;;;;;;;10.70;6.80;;;18.30;99.90;;;;;;4999589;28;20504;-67
2021/08/12 01:34:02;;;;;;;9.03;8.23;;;18.30;99.90;;;;;;4994762;28;20514;-67
2021/08/12 01:36:28;;;;;;;8.07;7.37;;;18.30;99.90;;;;;;4997819;28;20437;-67
2021/08/12 01:38:56;;;;;;;8.20;7.00;;;18.20;99.90;;;;;;5013801;28;20410;-67
2021/08/12 01:41:22;;;;;;;12.97;7.90;;;18.10;99.90;;;;;;5014021;28;20476;-67
2021/08/12 01:43:48;;;;;;;11.00;8.40;;;18.10;99.90;;;;;;5013775;28;20908;-67
2021/08/12 01:46:16;;;;;;;9.47;7.67;;;18.10;99.90;;;;;;5013617;28;20434;-67
2021/08/12 01:48:42;;;;;;;10.90;7.37;;;18.00;99.90;;;;;;5013588;28;20453;-67
2021/08/12 01:51:08;;;;;;;9.13;8.20;;;18.10;99.90;;;;;;5013536;28;20962;-67
2021/08/12 01:53:34;;;;;;;7.53;6.73;;;18.00;99.90;;;;;;5013666;28;20451;-67
2021/08/12 01:56:00;;;;;;;8.10;7.30;;;18.00;99.90;;;;;;5013924;28;20567;-67
2021/08/12 01:58:29;;;;;;;7.87;7.17;;;18.00;99.90;;;;;;5013225;28;20437;-67
2021/08/12 02:00:56;;;;;;;8.03;7.30;;;18.00;99.90;;;;;;5012330;28;20454;-67
2021/08/12 02:03:24;;;;;;;8.40;7.60;;;18.00;99.90;;;;;;5013543;28;20441;-67
2021/08/12 02:05:51;;;;;;;7.93;7.30;;;17.90;99.90;;;;;;5013791;28;20557;-67
2021/08/12 02:08:20;;;;;;;9.23;7.93;;;17.90;99.90;;;;;;5013100;28;20523;-67
2021/08/12 02:10:48;;;;;;;8.60;7.80;;;17.90;99.90;;;;;;5013155;28;20453;-67
2021/08/12 02:13:13;;;;;;;8.67;7.87;;;17.90;99.90;;;;;;5013289;28;20430;-67
2021/08/12 02:15:39;;;;;;;8.30;7.50;;;17.90;99.90;;;;;;5012958;28;20927;-67
2021/08/12 02:18:05;;;;;;;8.53;7.73;;;17.80;99.90;;;;;;4995740;28;20269;-67
2021/08/12 02:20:31;;;;;;;8.37;7.73;;;17.90;99.90;;;;;;5012852;28;20589;-67
2021/08/12 02:23:02;;;;;;;8.17;7.47;;;17.80;99.90;;;;;;5012769;28;20442;-67
2021/08/12 02:25:36;;;;;;;8.20;7.50;;;17.90;99.90;;;;;;5013334;28;20456;-67
2021/08/12 02:28:05;;;;;;;8.50;7.80;;;17.80;99.90;;;;;;5013132;28;20507;-67
2021/08/12 02:30:35;;;;;;;9.77;7.70;;;17.80;99.90;;;;;;5002259;28;20451;-67
2021/08/12 02:33:02;;;;;;;9.57;8.67;;;17.70;99.90;;;;;;5011107;28;20437;-67
2021/08/12 02:35:29;;;;;;;12.03;10.37;;;17.70;99.90;;;;;;5013017;28;20434;-67
2021/08/12 02:37:57;;;;;;;10.13;9.33;;;17.70;99.90;;;;;;5013033;28;20784;-67
2021/08/12 02:40:24;;;;;;;8.63;7.93;;;17.70;99.90;;;;;;5012496;28;21200;-67
2021/08/12 02:42:51;;;;;;;9.40;8.33;;;17.70;99.90;;;;;;5012965;28;20416;-67
2021/08/12 02:45:17;;;;;;;10.77;9.83;;;17.70;99.90;;;;;;5012483;28;20491;-67
2021/08/12 02:47:43;;;;;;;9.03;8.23;;;17.70;99.90;;;;;;5012596;28;20454;-67
2021/08/12 02:50:10;;;;;;;10.30;9.40;;;17.70;99.90;;;;;;5012518;28;20787;-67
2021/08/12 02:52:39;;;;;;;9.87;8.87;;;17.60;99.90;;;;;;5012549;28;20466;-67
2021/08/12 02:55:06;;;;;;;9.30;8.37;;;17.60;99.90;;;;;;5012632;28;20448;-67
2021/08/12 02:57:32;;;;;;;9.07;8.37;;;17.60;99.90;;;;;;5012367;28;20517;-67
2021/08/12 02:59:58;;;;;;;12.37;9.53;;;17.60;99.90;;;;;;5011839;28;20978;-67
2021/08/12 03:02:24;;;;;;;9.50;8.00;;;17.60;99.90;;;;;;5012757;28;20215;-67
2021/08/12 03:04:50;;;;;;;9.67;7.77;;;17.50;99.90;;;;;;5012372;28;20448;-67
2021/08/12 03:07:18;;;;;;;9.43;8.53;;;17.60;99.90;;;;;;5012026;28;20839;-67
2021/08/12 03:09:48;;;;;;;10.30;9.10;;;17.50;99.90;;;;;;5012131;28;20270;-67
2021/08/12 03:12:15;;;;;;;9.03;8.13;;;17.30;99.90;;;;;;5012042;28;20436;-67
2021/08/12 03:14:41;;;;;;;9.43;8.63;;;17.20;99.90;;;;;;5012024;28;20437;-67
2021/08/12 03:17:11;;;;;;;10.07;9.10;;;17.30;99.90;;;;;;5012463;28;20441;-67
2021/08/12 03:19:38;;;;;;;10.10;9.10;;;17.30;99.90;;;;;;5011580;28;20826;-67
2021/08/12 03:22:05;;;;;;;10.03;9.03;;;17.30;99.90;;;;;;5012165;28;20966;-67
2021/08/12 03:24:34;;;;;;;9.30;8.10;;;17.30;99.90;;;;;;5012288;28;20410;-66
2021/08/12 03:27:00;;;;;;;9.93;8.27;;;17.30;99.90;;;;;;5011720;28;20437;-67
2021/08/12 03:29:26;;;;;;;9.30;8.10;;;17.40;99.90;;;;;;5010245;28;20923;-67
2021/08/12 03:31:51;;;;;;;10.37;9.40;;;17.30;99.90;;;;;;4992721;28;20417;-67
2021/08/12 03:34:17;;;;;;;9.67;8.67;;;17.30;99.90;;;;;;4995876;28;20325;-67
2021/08/12 03:36:43;;;;;;;10.47;8.30;;;17.30;99.90;;;;;;5012190;28;20703;-67
2021/08/12 03:39:09;;;;;;;9.63;8.20;;;17.30;99.90;;;;;;5011715;28;20187;-67
2021/08/12 03:41:34;;;;;;;11.97;8.60;;;17.30;99.90;;;;;;5012013;28;20575;-67
2021/08/12 03:44:00;;;;;;;10.17;9.07;;;17.30;99.90;;;;;;5011876;28;20413;-67
2021/08/12 03:46:25;;;;;;;10.00;8.73;;;17.30;99.90;;;;;;5011932;28;20198;-67
2021/08/12 03:48:51;;;;;;;10.57;8.47;;;17.20;99.90;;;;;;5011785;28;20225;-67
2021/08/12 03:51:17;;;;;;;10.30;8.83;;;17.20;99.90;;;;;;5011802;28;20217;-67
2021/08/12 03:53:42;;;;;;;9.53;8.37;;;17.20;99.90;;;;;;4993845;28;20171;-67
2021/08/12 03:56:08;;;;;;;10.50;9.60;;;17.20;99.90;;;;;;5011120;28;20182;-67
2021/08/12 03:58:33;;;;;;;9.37;8.57;;;17.10;99.90;;;;;;5011499;28;20194;-67
2021/08/12 04:00:59;;;;;;;10.20;8.57;;;17.10;99.90;;;;;;5011609;28;20198;-67
2021/08/12 04:03:25;;;;;;;9.17;8.30;;;17.10;99.90;;;;;;5011973;28;20171;-67
2021/08/12 04:05:50;;;;;;;10.90;9.20;;;17.20;99.90;;;;;;5011779;28;20186;-67
2021/08/12 04:08:16;;;;;;;10.33;9.43;;;17.10;99.90;;;;;;5011372;28;20256;-67
2021/08/12 04:10:42;;;;;;;9.30;8.33;;;17.10;99.90;;;;;;5011386;28;20205;-67
2021/08/12 04:13:07;;;;;;;9.87;8.97;;;17.20;99.90;;;;;;5011803;28;20707;-67
2021/08/12 04:15:33;;;;;;;9.03;7.93;;;17.20;99.90;;;;;;5011540;28;20174;-67
2021/08/12 04:17:59;;;;;;;11.00;9.70;;;17.20;99.90;;;;;;5011369;28;20229;-67
2021/08/12 04:20:24;;;;;;;8.83;8.03;;;17.20;99.90;;;;;;5011815;28;20684;-68
2021/08/12 04:22:50;;;;;;;9.37;8.47;;;17.20;99.90;;;;;;5008358;28;20187;-67
2021/08/12 04:25:15;;;;;;;9.80;8.90;;;17.20;99.90;;;;;;5006279;28;20190;-67
2021/08/12 04:27:41;;;;;;;10.13;9.07;;;17.20;99.90;;;;;;5015275;28;20214;-68
2021/08/12 04:30:08;;;;;;;9.60;8.70;;;17.20;99.90;;;;;;4987511;28;20222;-67
2021/08/12 04:32:35;;;;;;;9.07;8.27;;;17.20;99.90;;;;;;5015292;28;20171;-67
2021/08/12 04:35:02;;;;;;;12.90;9.20;;;17.20;99.90;;;;;;5015325;28;20425;-67
2021/08/12 04:37:42;;;;;;;10.23;8.90;;;17.30;99.90;;;;;;5015261;28;20420;-67
2021/08/12 04:40:09;;;;;;;12.23;8.90;;;17.20;99.90;;;;;;5014897;28;20448;-67
2021/08/12 04:42:35;;;;;;;11.60;9.30;;;17.20;99.90;;;;;;4995583;28;20458;-67
2021/08/12 04:45:00;;;;;;;12.10;9.13;;;17.10;99.90;;;;;;4995521;28;20425;-67
2021/08/12 04:47:26;;;;;;;10.43;9.33;;;17.10;99.90;;;;;;4995429;28;20323;-67
2021/08/12 04:49:52;;;;;;;10.97;9.40;;;17.10;99.90;;;;;;4995108;28;20274;-67
2021/08/12 04:52:17;;;;;;;10.30;9.27;;;17.30;99.90;;;;;;4995432;28;20172;-68
2021/08/12 04:54:43;;;;;;;12.60;8.90;;;17.40;99.90;;;;;;4995774;28;20657;-67
2021/08/12 04:57:08;;;;;;;10.10;9.03;;;17.40;99.90;;;;;;4995239;28;20163;-68
2021/08/12 04:59:34;;;;;;;10.70;9.70;;;17.50;99.90;;;;;;4994874;28;20184;-68
2021/08/12 05:01:59;;;;;;;9.07;8.17;;;17.70;99.90;;;;;;4995213;28;20516;-67
2021/08/12 05:04:25;;;;;;;10.00;9.10;;;17.80;99.90;;;;;;4995124;28;20221;-67
2021/08/12 05:06:50;;;;;;;10.37;9.23;;;18.10;99.90;;;;;;4998627;28;20633;-67
2021/08/12 05:09:16;;;;;;;11.83;8.57;;;18.30;99.90;;;;;;5004565;28;20213;-68
2021/08/12 05:11:41;;;;;;;9.70;8.53;;;18.60;99.90;;;;;;5004876;28;20202;-68
2021/08/12 05:14:07;;;;;;;10.60;8.43;;;18.80;99.90;;;;;;5007979;28;20174;-68
2021/08/12 05:16:32;;;;;;;8.67;7.90;;;18.80;99.90;;;;;;5014516;28;20179;-68
2021/08/12 05:18:58;;;;;;;9.77;8.50;;;19.00;99.90;;;;;;5014277;28;20175;-68
2021/08/12 05:21:24;;;;;;;9.63;8.63;;;19.10;99.90;;;;;;5014275;28;20257;-68
2021/08/12 05:23:49;;;;;;;9.97;9.00;;;19.10;99.90;;;;;;5013405;28;20649;-68
2021/08/12 05:26:15;;;;;;;11.43;9.40;;;19.00;99.90;;;;;;5002408;28;20182;-68
2021/08/12 05:28:40;;;;;;;11.30;10.20;;;19.00;99.90;;;;;;5013927;28;20198;-68
2021/08/12 05:31:06;;;;;;;10.33;9.33;;;19.00;99.90;;;;;;4999158;28;20276;-68
2021/08/12 05:33:31;;;;;;;14.73;9.43;;;18.90;99.90;;;;;;5010744;28;20171;-68
2021/08/12 05:35:57;;;;;;;10.37;9.30;;;18.80;99.90;;;;;;4999650;28;20182;-68
2021/08/12 05:38:22;;;;;;;10.20;9.30;;;18.70;99.90;;;;;;5004803;28;20187;-68
2021/08/12 05:40:48;;;;;;;15.27;9.70;;;18.50;99.90;;;;;;5007532;28;20195;-68
2021/08/12 05:43:13;;;;;;;11.67;9.20;;;18.50;99.90;;;;;;5002888;28;20175;-68
2021/08/12 05:45:39;;;;;;;11.33;9.53;;;18.50;99.90;;;;;;5013707;28;20175;-68
2021/08/12 05:48:05;;;;;;;11.93;9.63;;;18.40;99.90;;;;;;5013893;28;20194;-68
2021/08/12 05:50:30;;;;;;;17.10;10.23;;;18.50;99.90;;;;;;5006340;28;20195;-68
2021/08/12 05:52:56;;;;;;;14.30;9.63;;;18.70;99.90;;;;;;5009382;28;20182;-68
2021/08/12 05:55:21;;;;;;;34.83;11.60;;;18.90;99.90;;;;;;5011742;28;20326;-68
2021/08/12 05:57:47;;;;;;;21.27;9.83;;;19.10;99.90;;;;;;4994231;28;20598;-68
2021/08/12 06:00:13;;;;;;;18.30;10.07;;;19.30;99.90;;;;;;4993746;28;20198;-68
2021/08/12 06:02:38;;;;;;;16.50;8.83;;;19.50;99.90;;;;;;4994168;28;20199;-68
2021/08/12 06:05:04;;;;;;;22.40;16.90;;;19.60;99.90;;;;;;4994026;28;20916;-68
2021/08/12 06:07:30;;;;;;;24.10;12.07;;;19.60;99.90;;;;;;4993915;28;20187;-68
2021/08/12 06:09:55;;;;;;;14.80;9.90;;;19.70;99.90;;;;;;4993733;28;20207;-68
2021/08/12 06:12:21;;;;;;;18.87;10.67;;;19.70;99.90;;;;;;4976503;28;20630;-68
2021/08/12 06:14:46;;;;;;;14.80;11.03;;;19.70;99.90;;;;;;4997964;28;20175;-68
2021/08/12 06:17:12;;;;;;;12.20;9.13;;;19.80;99.90;;;;;;5006710;28;20558;-68
2021/08/12 06:19:38;;;;;;;14.33;10.50;;;19.90;99.90;;;;;;5006917;28;20202;-68
2021/08/12 06:22:03;;;;;;;20.10;9.93;;;20.10;99.90;;;;;;5012706;28;20615;-68
2021/08/12 06:24:30;;;;;;;12.60;9.50;;;20.10;99.90;;;;;;4993652;28;20618;-65
2021/08/12 06:26:55;;;;;;;11.27;8.80;;;20.10;99.90;;;;;;4996708;28;20516;-63
2021/08/12 06:29:21;;;;;;;12.57;10.17;;;20.10;99.90;;;;;;5009302;28;20536;-63
2021/08/12 06:31:46;;;;;;;10.40;9.50;;;20.10;99.90;;;;;;5003660;28;20191;-63
2021/08/12 06:34:12;;;;;;;10.73;9.63;;;20.00;99.90;;;;;;4993587;28;20708;-63
2021/08/12 06:36:37;;;;;;;11.10;9.50;;;20.10;99.90;;;;;;5009296;28;20229;-63
2021/08/12 06:39:03;;;;;;;10.37;9.37;;;20.40;99.90;;;;;;5012799;28;20178;-63
2021/08/12 06:41:29;;;;;;;9.87;8.90;;;20.80;99.90;;;;;;4998401;28;20285;-63
2021/08/12 06:43:55;;;;;;;8.93;8.13;;;21.10;99.90;;;;;;4993395;28;20196;-63
2021/08/12 06:46:20;;;;;;;14.93;9.20;;;21.40;99.90;;;;;;4992849;28;20939;-63
2021/08/12 06:48:46;;;;;;;12.07;7.73;;;21.70;99.90;;;;;;5008571;28;20195;-63
2021/08/12 06:51:11;;;;;;;13.53;8.57;;;22.10;99.90;;;;;;5008497;28;20200;-63
2021/08/12 06:53:37;;;;;;;12.70;8.80;;;22.40;99.90;;;;;;4999840;28;20194;-66
2021/08/12 06:56:03;;;;;;;12.53;9.50;;;22.70;99.90;;;;;;5001600;28;20171;-66
2021/08/12 06:58:29;;;;;;;9.60;8.20;;;22.80;99.90;;;;;;5012451;28;20177;-66
2021/08/12 07:00:55;;;;;;;9.97;8.97;;;23.00;99.90;;;;;;4999467;28;20529;-66
2021/08/12 07:03:20;;;;;;;8.90;7.80;;;23.30;99.90;;;;;;5008576;28;20177;-66
2021/08/12 07:05:45;;;;;;;9.40;7.90;;;23.60;99.90;;;;;;5012876;28;20175;-66
2021/08/12 07:08:11;;;;;;;11.97;7.80;;;24.20;99.90;;;;;;5008326;28;20275;-67
2021/08/12 07:10:37;;;;;;;8.87;7.93;;;24.00;99.90;;;;;;5002168;28;20194;-67
2021/08/12 07:13:03;;;;;;;9.07;8.00;;;23.80;99.90;;;;;;5012460;28;20262;-66
2021/08/12 07:15:29;;;;;;;10.53;7.60;;;23.60;99.90;;;;;;5012439;28;20171;-66
2021/08/12 07:17:54;;;;;;;12.10;7.70;;;23.70;99.90;;;;;;5012334;28;20428;-66
2021/08/12 07:20:20;;;;;;;9.03;8.10;;;23.80;99.90;;;;;;5011621;28;20569;-66
2021/08/12 07:22:46;;;;;;;7.73;6.93;;;24.20;99.90;;;;;;5010646;28;20266;-66
2021/08/12 07:25:11;;;;;;;11.00;7.47;;;24.60;99.90;;;;;;5012345;28;20606;-66
2021/08/12 07:27:37;;;;;;;9.97;8.17;;;25.00;99.90;;;;;;4995932;28;20214;-66
2021/08/12 07:30:05;;;;;;;8.50;7.80;;;25.30;99.90;;;;;;5001524;28;20278;-67
2021/08/12 07:32:30;;;;;;;8.87;7.73;;;25.50;99.90;;;;;;4992676;28;20171;-67
2021/08/12 07:34:56;;;;;;;9.60;7.30;;;25.60;99.90;;;;;;4992524;28;20423;-67
2021/08/12 07:37:21;;;;;;;10.73;8.10;;;25.60;99.90;;;;;;4992618;28;20580;-66
2021/08/12 07:39:47;;;;;;;8.43;7.63;;;25.50;99.90;;;;;;4992303;28;20266;-67
2021/08/12 07:42:18;;;;;;;10.17;8.70;;;25.70;99.90;;;;;;4992577;28;20190;-66
2021/08/12 07:44:44;;;;;;;14.77;8.67;;;25.80;99.90;;;;;;4995872;28;20504;-67
2021/08/12 07:47:09;;;;;;;10.83;6.90;;;25.80;99.90;;;;;;5011999;28;20450;-67
2021/08/12 07:49:35;;;;;;;7.60;6.60;;;25.90;99.90;;;;;;5011542;28;20668;-66
2021/08/12 07:52:00;;;;;;;9.97;6.33;;;26.40;99.90;;;;;;5012003;28;20173;-67
2021/08/12 07:54:26;;;;;;;6.50;5.90;;;26.90;99.90;;;;;;5008533;28;20227;-67
2021/08/12 07:56:52;;;;;;;8.40;7.70;;;27.00;99.90;;;;;;5009492;28;20261;-66
2021/08/12 07:59:18;;;;;;;7.27;6.57;;;26.80;99.90;;;;;;5014933;28;20229;-66
2021/08/12 08:01:43;;;;;;;7.60;6.73;;;26.60;99.90;;;;;;5015992;28;20414;-67
2021/08/12 08:04:09;;;;;;;7.10;6.40;;;26.70;99.90;;;;;;5015842;28;20628;-66
2021/08/12 08:06:34;;;;;;;6.83;6.10;;;27.00;99.90;;;;;;5015804;28;20178;-67
2021/08/12 08:09:00;;;;;;;9.80;7.33;;;27.00;99.90;;;;;;5015577;28;20195;-67
2021/08/12 08:11:25;;;;;;;8.43;7.20;;;26.80;99.90;;;;;;5011675;28;20191;-67
2021/08/12 08:13:51;;;;;;;7.47;6.80;;;27.00;99.90;;;;;;4996178;28;20176;-67
2021/08/12 08:16:19;;;;;;;7.10;6.50;;;27.50;99.90;;;;;;4996062;28;20659;-67
2021/08/12 08:18:45;;;;;;;8.73;6.97;;;28.10;99.90;;;;;;4978187;28;20175;-66
2021/08/12 08:21:10;;;;;;;15.77;6.90;;;28.50;99.90;;;;;;4996854;28;20613;-67
2021/08/12 08:23:36;;;;;;;7.77;6.53;;;28.40;99.90;;;;;;4996058;28;20168;-66
2021/08/12 08:26:02;;;;;;;7.57;6.80;;;28.40;99.90;;;;;;4996024;28;20179;-67
2021/08/12 08:28:27;;;;;;;8.80;6.20;;;28.70;99.90;;;;;;4995527;28;20199;-67
2021/08/12 08:30:53;;;;;;;9.57;7.83;;;29.10;99.90;;;;;;5008994;28;20195;-67
2021/08/12 08:33:18;;;;;;;11.37;7.47;;;29.50;99.90;;;;;;5015316;28;20246;-66
2021/08/12 08:35:44;;;;;;;8.17;6.37;;;28.90;99.90;;;;;;5015250;28;20594;-67
2021/08/12 08:38:09;;;;;;;6.73;6.13;;;29.20;99.90;;;;;;5013591;28;20186;-67
2021/08/12 08:40:37;;;;;;;7.57;6.87;;;29.70;99.90;;;;;;5014664;28;20237;-67
2021/08/12 08:43:02;;;;;;;7.50;6.80;;;29.30;99.90;;;;;;5015618;28;20175;-67
2021/08/12 08:45:29;;;;;;;8.80;6.23;;;28.70;99.90;;;;;;5014826;28;20842;-67
2021/08/12 08:47:57;;;;;;;7.67;6.87;;;28.60;99.90;;;;;;5014894;28;20475;-66
2021/08/12 08:50:31;;;;;;;7.40;6.57;;;28.50;99.90;;;;;;5012999;28;20446;-66
2021/08/12 08:52:57;;;;;;;7.67;6.17;;;28.50;99.90;;;;;;5015166;28;20756;-66
2021/08/12 08:55:23;;;;;;;8.30;7.40;;;28.50;99.90;;;;;;5014924;28;20421;-67
2021/08/12 08:57:54;;;;;;;9.03;7.90;;;28.70;99.90;;;;;;4997368;28;20430;-67
2021/08/12 09:00:19;;;;;;;10.07;8.00;;;29.20;99.90;;;;;;4998699;28;20873;-67
2021/08/12 09:02:47;;;;;;;7.47;6.77;;;29.20;99.90;;;;;;4995236;28;20423;-67
2021/08/12 09:05:16;;;;;;;9.37;7.93;;;29.20;99.90;;;;;;4994628;28;20600;-67
2021/08/12 09:07:43;;;;;;;10.63;7.67;;;29.20;99.90;;;;;;4995038;28;20581;-67
2021/08/12 09:10:11;;;;;;;8.40;6.43;;;29.30;99.90;;;;;;4994276;28;20442;-67
2021/08/12 09:12:37;;;;;;;7.77;6.97;;;29.60;99.90;;;;;;4996060;28;20438;-67
2021/08/12 09:15:05;;;;;;;8.93;6.20;;;29.90;99.90;;;;;;4994887;28;20423;-67
2021/08/12 09:17:31;;;;;;;7.87;6.73;;;30.30;99.50;;;;;;4994964;28;20171;-67
2021/08/12 09:20:14;;;;;;;7.40;6.70;;;31.00;98.80;;;;;;5012685;28;20472;-67
2021/08/12 09:22:56;;;;;;;7.80;7.10;;;31.80;97.60;;;;;;5014453;28;20456;-67
2021/08/12 09:25:36;;;;;;;6.80;6.20;;;32.30;96.60;;;;;;5014241;28;20421;-67
2021/08/12 09:28:21;;;;;;;8.80;7.50;;;32.50;95.30;;;;;;5014220;28;20524;-67
2021/08/12 09:31:01;;;;;;;7.40;6.60;;;32.80;94.10;;;;;;5001586;28;20948;-67
2021/08/12 09:33:31;;;;;;;7.87;6.60;;;33.20;93.10;;;;;;4994632;28;20430;-67
2021/08/12 09:35:57;;;;;;;9.23;7.40;;;33.60;92.30;;;;;;4994385;28;20418;-67
2021/08/12 09:38:24;;;;;;;7.60;6.83;;;32.80;91.90;;;;;;4994273;28;20425;-67
2021/08/12 09:40:55;;;;;;;7.83;6.63;;;32.30;92.30;;;;;;4994437;28;20894;-67
2021/08/12 09:43:21;;;;;;;8.47;6.03;;;32.00;93.00;;;;;;4995718;28;20469;-67
2021/08/12 09:45:47;;;;;;;7.20;6.60;;;32.60;92.90;;;;;;5006548;28;20476;-67
2021/08/12 09:48:15;;;;;;;9.07;6.13;;;32.90;91.50;;;;;;5011935;28;20465;-67
2021/08/12 09:50:43;;;;;;;8.60;8.00;;;32.70;90.70;;;;;;5013592;28;20190;-65
2021/08/12 09:53:17;;;;;;;7.10;6.17;;;33.70;90.20;;;;;;4996283;28;20417;-64
2021/08/12 09:55:42;;;;;;;11.17;6.53;;;33.50;87.00;;;;;;5013919;28;20429;-64
2021/08/12 09:58:09;;;;;;;7.80;7.00;;;32.80;88.40;;;;;;5011757;28;20430;-64
2021/08/12 10:00:38;;;;;;;7.53;6.83;;;33.70;87.50;;;;;;5013303;28;20565;-64
2021/08/12 10:03:20;;;;;;;7.57;7.00;;;33.20;84.20;;;;;;4995423;28;20445;-66
2021/08/12 10:05:45;;;;;;;7.60;6.90;;;32.90;84.30;;;;;;5012128;28;20679;-66
2021/08/12 10:08:11;;;;;;;7.47;6.87;;;33.50;84.00;;;;;;5002744;28;20461;-65
2021/08/12 10:10:38;;;;;;;7.13;6.60;;;32.30;83.70;;;;;;4997007;28;20207;-65
2021/08/12 10:13:03;;;;;;;7.83;6.80;;;31.80;84.70;;;;;;5000130;28;20246;-65
2021/08/12 10:15:31;;;;;;;11.00;7.87;;;31.60;85.60;;;;;;4993819;28;20514;-64
2021/08/12 10:17:58;;;;;;;8.63;6.90;;;31.70;86.50;;;;;;4993837;28;20271;-65
2021/08/12 10:20:35;;;;;;;7.67;6.87;;;32.80;83.80;;;;;;5022692;23;20487;-61
2021/08/12 10:23:05;;;;;;;6.90;6.30;;;32.80;83.00;;;;;;4993716;28;20435;-62
2021/08/12 10:25:34;;;;;;;11.20;6.63;;;33.50;82.70;;;;;;4992796;28;20426;-62
2021/08/12 10:28:02;;;;;;;7.60;6.90;;;34.90;79.50;;;;;;4987366;28;20478;-62
2021/08/12 10:30:29;;;;;;;9.83;7.90;;;36.00;76.20;;;;;;5002670;28;20870;-62
2021/08/12 10:33:03;;;;;;;7.10;6.40;;;36.30;73.90;;;;;;5005730;28;20426;-61
2021/08/12 10:35:31;;;;;;;9.10;7.20;;;37.70;71.20;;;;;;5007208;28;20514;-62
2021/08/12 10:37:57;;;;;;;7.27;6.37;;;39.10;67.40;;;;;;4993021;28;20503;-61
2021/08/12 10:40:35;;;;;;;7.30;6.60;;;40.40;59.70;;;;;;4992827;28;20458;-62
2021/08/12 10:43:02;;;;;;;8.03;7.43;;;40.30;57.50;;;;;;4992470;28;20430;-62
2021/08/12 10:45:29;;;;;;;8.07;6.60;;;39.30;57.60;;;;;;4991776;28;20493;-61
2021/08/12 10:47:56;;;;;;;7.50;6.80;;;38.40;58.60;;;;;;4979607;28;20799;-62
2021/08/12 10:50:22;;;;;;;8.37;7.70;;;38.20;58.20;;;;;;5007691;28;20950;-61
2021/08/12 10:53:13;;;;;;;7.23;6.63;;;37.90;57.80;;;;;;5012042;28;20476;-61
2021/08/12 10:55:48;;;;;;;7.70;7.10;;;37.70;58.20;;;;;;5012854;28;20159;-62
2021/08/12 11:01:01;;;;;;;7.80;7.10;;;37.80;58.20;;;;;;5009494;28;20450;-62
2021/08/12 11:03:33;;;;;;;7.17;6.67;;;37.30;57.90;;;;;;4973550;28;20428;-62
2021/08/12 11:06:19;;;;;;;8.03;7.33;;;34.80;60.30;;;;;;4974445;28;20864;-62
2021/08/12 11:08:54;;;;;;;8.30;7.60;;;34.40;63.50;;;;;;4973316;28;20876;-62
2021/08/12 11:11:22;;;;;;;8.47;6.97;;;34.80;63.30;;;;;;4992822;28;20492;-61
2021/08/12 11:13:49;;;;;;;8.80;6.80;;;35.30;63.30;;;;;;4992467;28;20418;-61
2021/08/12 11:16:15;;;;;;;8.80;7.87;;;36.30;63.10;;;;;;4992790;28;20932;-62
2021/08/12 11:18:47;;;;;;;8.23;7.47;;;36.70;59.90;;;;;;4992440;28;20425;-62
2021/08/12 11:21:30;;;;;;;8.17;7.47;;;37.20;60.30;;;;;;4992634;28;20460;-62
2021/08/12 11:23:59;;;;;;;8.07;7.40;;;37.80;59.10;;;;;;4991121;28;20442;-62
2021/08/12 11:26:25;;;;;;;11.80;8.20;;;37.90;59.10;;;;;;4992599;28;20901;-61
2021/08/12 11:28:53;;;;;;;8.67;7.87;;;38.20;58.50;;;;;;4982640;28;20472;-62
2021/08/12 11:31:23;;;;;;;8.60;7.90;;;38.40;57.90;;;;;;4991167;28;20447;-62
2021/08/12 11:33:59;;;;;;;7.67;6.97;;;37.80;58.00;;;;;;4992626;28;20410;-62
2021/08/12 11:36:35;;;;;;;8.57;7.87;;;37.90;58.50;;;;;;4992700;28;20465;-62
2021/08/12 11:39:09;;;;;;;9.00;8.10;;;37.70;58.20;;;;;;4990876;28;20893;-61
2021/08/12 11:41:43;;;;;;;8.50;7.87;;;37.20;58.80;;;;;;4992451;28;20805;-62
2021/08/12 11:44:14;;;;;;;8.90;8.20;;;37.00;58.90;;;;;;4991905;28;20438;-62
2021/08/12 11:46:41;;;;;;;7.40;6.73;;;37.60;58.40;;;;;;4973154;28;20459;-61
2021/08/12 11:49:07;;;;;;;7.97;7.47;;;39.60;56.70;;;;;;4972691;28;20460;-62
2021/08/12 11:51:34;;;;;;;8.60;7.90;;;41.00;55.20;;;;;;4972821;28;20465;-62
2021/08/12 11:54:01;;;;;;;7.40;6.80;;;41.40;53.60;;;;;;4973052;28;20895;-62
2021/08/12 11:56:29;;;;;;;8.70;8.00;;;42.60;52.20;;;;;;4986817;28;20774;-62
2021/08/12 11:58:56;;;;;;;8.20;7.50;;;43.20;50.80;;;;;;4991637;28;20434;-62
2021/08/12 12:01:27;;;;;;;8.17;7.57;;;41.50;51.40;;;;;;4992567;28;20462;-62
2021/08/12 12:04:01;;;;;;;8.90;8.00;;;39.20;53.40;;;;;;4992311;28;20438;-63
2021/08/12 12:06:32;;;;;;;9.63;8.73;;;38.70;54.50;;;;;;4982731;28;20440;-62
2021/08/12 12:08:58;;;;;;;7.80;7.00;;;38.70;54.80;;;;;;4972647;28;20459;-61
2021/08/12 12:11:24;;;;;;;8.67;8.07;;;39.00;53.50;;;;;;4973060;28;20438;-62
2021/08/12 12:13:49;;;;;;;8.90;7.90;;;39.30;53.00;;;;;;4972445;28;20770;-63
2021/08/12 12:16:18;;;;;;;8.97;8.17;;;39.60;52.70;;;;;;4955592;28;20215;-62
2021/08/12 12:18:44;;;;;;;9.53;8.83;;;39.70;53.20;;;;;;4972446;28;20169;-62
2021/08/12 12:21:15;;;;;;;8.73;8.13;;;41.90;51.50;;;;;;4973963;28;20477;-62
2021/08/12 12:23:44;;;;;;;8.03;7.43;;;43.70;49.20;;;;;;4972920;28;20499;-62
2021/08/12 12:26:29;;;;;;;8.00;7.40;;;45.30;47.40;;;;;;4972919;28;20420;-63
2021/08/12 12:28:54;;;;;;;7.93;7.20;;;44.90;44.70;;;;;;4977250;28;20490;-62
2021/08/12 12:31:22;;;;;;;7.90;7.40;;;43.90;46.00;;;;;;4990494;28;20781;-63
2021/08/12 12:34:08;;;;;;;8.10;7.50;;;44.50;45.10;;;;;;4988716;28;20180;-62
2021/08/12 12:36:37;;;;;;;8.53;7.50;;;44.50;45.60;;;;;;4990295;28;20430;-62
2021/08/12 12:39:03;;;;;;;8.10;7.50;;;44.90;44.60;;;;;;4991881;28;20426;-62
2021/08/12 12:41:29;;;;;;;8.80;8.10;;;44.50;44.10;;;;;;4991999;28;20442;-62
2021/08/12 12:44:07;;;;;;;8.33;7.83;;;43.20;44.80;;;;;;4992361;28;20172;-62
2021/08/12 12:46:33;;;;;;;8.53;8.03;;;41.40;46.90;;;;;;4995663;28;20175;-62
2021/08/12 12:49:33;;;;;;;7.33;6.73;;;40.70;47.60;;;;;;4993435;28;20469;-62